Time;durP1;ratioP1;P1;durP2;ratioP2;P2;SDS_P1;SDS_P2;PMS_P1;PMS_P2;Temp;Humidity;BMP_temperature;BMP_pressure;BME280_temperature;BME280_humidity;BME280_pressure;Samples;Min_cycle;Max_cycle;Signal;HPM_P1;HPM_P2
2023/04/04 00:00:28;;;;;;;2.37;1.63;;;;;;;1.10;56.42;99975.72;5094266;28;40684;-85
2023/04/04 00:02:55;;;;;;;2.77;1.83;;;;;;;1.07;56.35;99974.84;5093776;28;41706;-83
2023/04/04 00:05:23;;;;;;;4.10;1.57;;;;;;;1.02;56.40;99967.91;5110779;28;40859;-82
2023/04/04 00:07:53;;;;;;;2.17;1.50;;;;;;;1.03;56.05;99973.13;5077390;28;39870;-82
2023/04/04 00:10:21;;;;;;;2.63;1.50;;;;;;;0.94;56.32;99960.16;5076299;28;40853;-82
2023/04/04 00:12:49;;;;;;;2.37;1.40;;;;;;;0.98;56.93;99969.69;5093820;28;41890;-80
2023/04/04 00:15:16;;;;;;;2.77;1.80;;;;;;;0.84;56.26;99948.03;5093044;28;43206;-86
2023/04/04 00:17:44;;;;;;;2.57;1.60;;;;;;;0.94;56.27;99962.75;5094081;28;40310;-81
2023/04/04 00:20:13;;;;;;;2.97;1.50;;;;;;;0.93;56.39;99968.84;5127737;27;41919;-82
2023/04/04 00:22:41;;;;;;;2.30;1.57;;;;;;;0.90;56.43;99965.38;5110612;28;42745;-83
2023/04/04 00:25:11;;;;;;;3.37;1.30;;;;;;;0.52;56.58;99908.22;5127208;27;43194;-85
2023/04/04 00:27:39;;;;;;;2.27;1.50;;;;;;;0.86;56.24;99964.56;5076301;28;40369;-86
2023/04/04 00:30:08;;;;;;;2.13;1.40;;;;;;;0.81;56.76;99961.09;5076050;28;42051;-84
2023/04/04 00:32:36;;;;;;;1.73;1.40;;;;;;;0.82;56.68;99954.13;5092908;28;42550;-85
2023/04/04 00:35:04;;;;;;;3.03;1.47;;;;;;;0.82;56.84;99955.00;5109316;28;41164;-81
2023/04/04 00:37:31;;;;;;;1.50;1.37;;;;;;;0.79;56.72;99955.00;5076147;28;39508;-84
2023/04/04 00:39:59;;;;;;;3.43;1.70;;;;;;;0.77;56.86;99959.38;5109761;28;40767;-81
2023/04/04 00:42:28;;;;;;;2.70;1.50;;;;;;;0.77;56.81;99954.16;5076077;28;41658;-83
2023/04/04 00:44:57;;;;;;;3.23;1.47;;;;;;;0.73;56.47;99949.84;5092595;28;43239;-83
2023/04/04 00:47:30;;;;;;;1.90;1.30;;;;;;;0.74;56.81;99950.72;5076058;28;40449;-83
2023/04/04 00:49:57;;;;;;;2.07;1.30;;;;;;;0.69;56.89;99942.91;5109206;28;41730;-83
2023/04/04 00:52:25;;;;;;;4.07;1.40;;;;;;;0.57;57.26;99927.34;5076332;28;42475;-86
2023/04/04 00:54:55;;;;;;;2.90;1.47;;;;;;;0.58;56.74;99929.06;5075673;28;41157;-81
2023/04/04 00:57:24;;;;;;;1.80;1.60;;;;;;;0.64;57.35;99940.31;5092801;28;40149;-82
2023/04/04 00:59:54;;;;;;;1.30;1.20;;;;;;;0.66;57.09;99943.78;5092326;28;41910;-82
2023/04/04 01:02:24;;;;;;;1.97;1.40;;;;;;;0.63;57.42;99953.34;5109767;28;41800;-82
2023/04/04 01:04:52;;;;;;;2.80;1.53;;;;;;;0.60;57.22;99932.53;5109212;28;41116;-84
2023/04/04 01:07:20;;;;;;;2.13;1.70;;;;;;;0.57;57.60;99922.13;5109442;28;38693;-85
2023/04/04 01:09:48;;;;;;;2.40;1.40;;;;;;;0.61;57.93;99934.28;5075300;28;41421;-84
2023/04/04 01:12:16;;;;;;;4.80;1.70;;;;;;;0.64;57.82;99944.66;5109142;28;41860;-83
2023/04/04 01:14:44;;;;;;;3.03;1.70;;;;;;;0.64;57.84;99940.31;5091881;28;42447;-86
2023/04/04 01:17:14;;;;;;;2.50;1.80;;;;;;;0.64;57.73;99940.31;5075523;28;40373;-83
2023/04/04 01:19:48;;;;;;;2.17;1.57;;;;;;;0.66;57.53;99948.13;5109442;28;42989;-84
2023/04/04 01:22:21;;;;;;;2.10;1.30;;;;;;;0.66;57.52;99945.53;5109291;28;41765;-86
2023/04/04 01:24:49;;;;;;;3.17;1.43;;;;;;;0.56;57.83;99929.06;5126199;27;42361;-85
2023/04/04 01:27:20;;;;;;;3.90;1.33;;;;;;;0.65;57.58;99942.06;5075357;28;40891;-84
2023/04/04 01:29:55;;;;;;;2.40;1.47;;;;;;;0.64;57.47;99939.44;5126388;27;41288;-84
2023/04/04 01:32:33;;;;;;;1.20;1.10;;;;;;;0.63;57.16;99940.31;5075317;28;43005;-85
2023/04/04 01:35:11;;;;;;;1.27;1.10;;;;;;;0.48;57.19;99919.56;5108991;28;41024;-83
2023/04/04 01:37:46;;;;;;;2.70;1.70;;;;;;;0.58;56.86;99934.28;5089523;28;40326;-85
2023/04/04 01:40:21;;;;;;;1.30;1.13;;;;;;;0.59;56.81;99936.03;5075030;28;41718;-85
2023/04/04 01:42:53;;;;;;;2.90;1.50;;;;;;;0.53;56.86;99926.47;5075479;28;41775;-83
2023/04/04 01:45:23;;;;;;;1.73;1.20;;;;;;;0.54;56.73;99930.81;5075112;28;41121;-86
2023/04/04 01:47:52;;;;;;;2.00;1.40;;;;;;;0.53;56.79;99933.44;5079889;28;39318;-82
2023/04/04 01:50:23;;;;;;;3.00;1.30;;;;;;;0.39;56.61;99914.38;5101569;28;42255;-82
2023/04/04 01:52:51;;;;;;;1.60;1.17;;;;;;;0.17;56.50;99879.75;5085725;28;41794;-82
2023/04/04 01:55:20;;;;;;;2.77;1.30;;;;;;;0.48;56.95;99927.38;5084769;28;40864;-86
2023/04/04 01:57:48;;;;;;;2.70;1.30;;;;;;;0.47;56.85;99926.53;5136337;27;41141;-81
2023/04/04 02:00:18;;;;;;;2.47;1.50;;;;;;;0.39;56.99;99916.97;5132547;27;42043;-85
2023/04/04 02:02:46;;;;;;;3.03;1.73;;;;;;;0.45;56.57;99924.78;5092711;28;43776;-84
2023/04/04 02:05:15;;;;;;;1.53;1.20;;;;;;;0.38;56.55;99915.25;5074592;28;42479;-86
2023/04/04 02:07:47;;;;;;;1.80;1.10;;;;;;;0.39;56.61;99917.84;5074891;28;38951;-81
2023/04/04 02:10:22;;;;;;;1.47;1.20;;;;;;;0.37;56.99;99918.75;5090840;28;42273;-86
2023/04/04 02:12:53;;;;;;;1.97;1.37;;;;;;;0.34;57.08;99923.09;5091930;28;43704;-84
2023/04/04 02:15:25;;;;;;;1.97;1.47;;;;;;;0.21;57.15;99902.31;5108398;28;41044;-80
2023/04/04 02:17:53;;;;;;;3.33;1.47;;;;;;;0.31;57.44;99914.44;5100308;28;39883;-82
2023/04/04 02:20:21;;;;;;;2.97;1.27;;;;;;;0.18;57.31;99903.19;5095558;28;42758;-87
2023/04/04 02:22:53;;;;;;;3.40;1.80;;;;;;;0.22;57.32;99911.88;5074979;28;42685;-85
2023/04/04 02:25:21;;;;;;;2.10;1.53;;;;;;;-0.01;57.50;99865.09;5108619;28;41219;-83
2023/04/04 02:27:49;;;;;;;1.87;1.53;;;;;;;0.20;57.84;99906.66;5091690;28;40156;-84
2023/04/04 02:30:18;;;;;;;3.00;1.30;;;;;;;0.28;57.87;99919.66;5074664;28;40585;-84
2023/04/04 02:32:49;;;;;;;2.73;1.27;;;;;;;0.21;57.89;99908.41;5074762;28;41618;-85
2023/04/04 02:35:19;;;;;;;2.93;1.80;;;;;;;0.17;57.70;99900.59;5074810;28;41072;-82
2023/04/04 02:37:47;;;;;;;2.07;1.50;;;;;;;0.26;57.95;99906.63;5074633;28;39049;-85
2023/04/04 02:40:22;;;;;;;2.40;1.40;;;;;;;0.10;57.95;99886.75;5074554;28;40613;-87
2023/04/04 02:42:50;;;;;;;2.67;1.60;;;;;;;0.25;57.86;99919.66;5091514;28;42772;-83
2023/04/04 02:45:18;;;;;;;3.50;1.60;;;;;;;-0.06;58.01;99866.81;5074387;28;41631;-82
2023/04/04 02:47:56;;;;;;;2.57;1.33;;;;;;;0.24;58.16;99907.53;5075032;28;38906;-85
2023/04/04 02:50:29;;;;;;;3.33;1.60;;;;;;;0.24;57.85;99907.53;5107975;28;40580;-84
2023/04/04 02:53:01;;;;;;;2.47;1.50;;;;;;;0.23;58.04;99906.66;5076462;28;41940;-86
2023/04/04 02:55:32;;;;;;;3.17;1.70;;;;;;;0.10;57.72;99884.13;5094090;28;42457;-85
2023/04/04 02:58:01;;;;;;;3.70;1.57;;;;;;;0.21;57.91;99908.41;5077681;28;38946;-82
2023/04/04 03:00:30;;;;;;;2.73;1.30;;;;;;;0.16;57.80;99899.72;5111599;28;42278;-84
2023/04/04 03:02:59;;;;;;;2.40;1.67;;;;;;;0.19;57.77;99904.94;5094677;28;42899;-86
2023/04/04 03:05:32;;;;;;;2.93;1.50;;;;;;;0.13;57.90;99894.50;5077072;28;41484;-85
2023/04/04 03:08:01;;;;;;;2.90;1.97;;;;;;;0.09;58.08;99887.59;5077620;28;40741;-85
2023/04/04 03:10:30;;;;;;;1.73;1.53;;;;;;;-0.03;58.25;99864.22;5077627;28;40499;-85
2023/04/04 03:12:58;;;;;;;2.43;1.60;;;;;;;0.16;58.32;99894.50;5077466;28;41620;-85
2023/04/04 03:15:27;;;;;;;2.80;1.60;;;;;;;0.16;58.24;99904.94;5076505;28;42209;-85
2023/04/04 03:17:57;;;;;;;1.90;1.60;;;;;;;0.04;58.41;99889.34;5111452;28;38527;-87
2023/04/04 03:20:30;;;;;;;2.53;1.40;;;;;;;0.14;58.82;99896.25;5061045;28;40890;-85
2023/04/04 03:22:58;;;;;;;2.73;1.37;;;;;;;0.13;58.78;99897.13;5111055;28;42697;-90
2023/04/04 03:25:25;;;;;;;2.50;1.70;;;;;;;-0.09;58.68;99861.63;5077164;28;41327;-83
2023/04/04 03:27:55;;;;;;;2.20;1.50;;;;;;;0.09;58.94;99891.94;5076803;28;38991;-85
2023/04/04 03:30:26;;;;;;;3.57;1.53;;;;;;;0.11;59.13;99896.28;5092826;28;41548;-84
2023/04/04 03:32:54;;;;;;;1.90;1.50;;;;;;;0.08;59.66;99891.09;5076862;28;41976;-88
2023/04/04 03:35:21;;;;;;;3.80;1.70;;;;;;;-0.11;59.35;99855.56;5093809;28;41223;-82
2023/04/04 03:37:51;;;;;;;2.70;1.50;;;;;;;-0.32;59.39;99821.78;5093945;28;40179;-85
2023/04/04 03:40:19;;;;;;;2.77;1.73;;;;;;;-0.10;60.20;99875.50;5076923;28;40876;-84
2023/04/04 03:42:47;;;;;;;1.90;1.70;;;;;;;0.05;59.44;99885.00;5076671;28;41995;-91
2023/04/04 03:45:19;;;;;;;2.90;2.17;;;;;;;0.04;59.88;99885.88;5076332;28;41481;-86
2023/04/04 03:47:47;;;;;;;3.47;1.80;;;;;;;0.02;59.89;99879.81;5093918;28;39271;-85
2023/04/04 03:50:15;;;;;;;2.20;1.63;;;;;;;0.02;59.91;99874.59;5110144;28;40628;-87
2023/04/04 03:52:50;;;;;;;1.90;1.70;;;;;;;-0.11;59.98;99852.94;5094705;28;42468;-88
2023/04/04 03:55:19;;;;;;;2.87;1.77;;;;;;;-0.05;60.17;99873.78;5127475;27;42012;-88
2023/04/04 03:57:47;;;;;;;4.17;2.40;;;;;;;-0.12;59.62;99861.63;5076421;28;41415;-85
2023/04/04 04:00:17;;;;;;;2.27;1.97;;;;;;;0.02;59.46;99885.00;5076386;28;41660;-88
2023/04/04 04:02:45;;;;;;;2.57;2.00;;;;;;;-0.11;59.81;99858.16;5127241;27;42855;-85
2023/04/04 04:05:13;;;;;;;5.13;2.37;;;;;;;-0.16;59.91;99847.78;5093197;28;42267;-86
2023/04/04 04:07:43;;;;;;;2.93;1.80;;;;;;;-0.12;59.77;99867.69;5093593;28;38925;-91
2023/04/04 04:10:14;;;;;;;3.40;2.20;;;;;;;-0.06;59.91;99872.03;5076135;28;41949;-88
2023/04/04 04:12:42;;;;;;;3.40;1.90;;;;;;;-0.21;59.67;99846.03;5124285;27;42564;-85
2023/04/04 04:15:11;;;;;;;2.23;1.90;;;;;;;-0.07;59.63;99880.72;5075835;28;42172;-85
2023/04/04 04:17:41;;;;;;;2.27;1.80;;;;;;;-0.18;60.05;99866.88;5076515;28;38468;-85
2023/04/04 04:20:11;;;;;;;2.13;1.80;;;;;;;-0.11;60.02;99871.16;5076123;28;41771;-85
2023/04/04 04:22:46;;;;;;;2.23;1.80;;;;;;;-0.14;59.95;99868.59;5076782;28;42864;-85
2023/04/04 04:25:16;;;;;;;4.37;2.30;;;;;;;-0.29;59.99;99847.81;5110062;28;41419;-85
2023/04/04 04:27:55;;;;;;;3.33;1.90;;;;;;;-0.26;59.95;99860.84;5076324;28;40334;-87
2023/04/04 04:30:23;;;;;;;2.53;2.17;;;;;;;-0.33;59.73;99851.28;5092402;28;42682;-90
2023/04/04 04:32:51;;;;;;;2.70;2.20;;;;;;;-0.38;59.51;99849.59;5077136;28;42112;-87
2023/04/04 04:35:23;;;;;;;3.77;2.03;;;;;;;-0.34;59.28;99865.16;5075851;28;41432;-90
2023/04/04 04:37:52;;;;;;;2.83;2.10;;;;;;;-0.31;59.26;99875.56;5110016;28;38909;-89
2023/04/04 04:40:23;;;;;;;4.80;2.23;;;;;;;-0.31;59.10;99878.19;5076033;28;40975;-85
2023/04/04 04:42:56;;;;;;;3.27;1.97;;;;;;;-0.39;59.25;99873.88;5076015;28;42996;-84
2023/04/04 04:45:26;;;;;;;2.87;2.37;;;;;;;-0.49;59.06;99858.25;5092497;28;43077;-83
2023/04/04 04:48:05;;;;;;;4.47;2.37;;;;;;;-0.53;59.16;99851.34;5110064;28;39746;-83
2023/04/04 04:50:37;;;;;;;3.63;2.33;;;;;;;-0.42;59.83;99870.41;5076117;28;41115;-87
2023/04/04 04:53:07;;;;;;;3.00;2.17;;;;;;;-0.49;59.64;99861.72;5075699;28;42935;-85
2023/04/04 04:55:37;;;;;;;2.67;2.13;;;;;;;-0.55;60.02;99846.16;5093009;28;42999;-88
2023/04/04 04:58:09;;;;;;;3.27;1.90;;;;;;;-0.42;59.85;99870.41;5076137;28;39049;-89
2023/04/04 05:00:40;;;;;;;2.73;2.40;;;;;;;-0.55;60.16;99851.34;5116376;28;42351;-83
2023/04/04 05:03:08;;;;;;;3.73;2.70;;;;;;;-0.42;60.54;99867.81;5100943;28;43162;-83
2023/04/04 05:05:43;;;;;;;3.77;2.57;;;;;;;-0.47;60.29;99862.59;5092370;28;43118;-85
2023/04/04 05:08:14;;;;;;;3.30;2.50;;;;;;;-0.52;60.54;99850.47;5093130;28;40969;-88
2023/04/04 05:10:57;;;;;;;4.70;2.63;;;;;;;-0.38;60.23;99878.22;5075805;28;40601;-86
2023/04/04 05:13:29;;;;;;;3.27;2.00;;;;;;;-0.38;59.92;99874.75;5123509;27;43684;-87
2023/04/04 05:15:57;;;;;;;3.73;2.30;;;;;;;-0.47;60.10;99864.34;5074338;28;41318;-86
2023/04/04 05:18:26;;;;;;;4.00;2.43;;;;;;;-0.49;60.53;99853.06;5109507;28;39330;-79
2023/04/04 05:20:55;;;;;;;3.53;2.50;;;;;;;-0.44;60.32;99853.91;5074832;28;40607;-79
2023/04/04 05:23:25;;;;;;;5.03;2.70;;;;;;;-0.39;60.37;99863.47;5075371;28;43173;-79
2023/04/04 05:25:53;;;;;;;3.50;2.50;;;;;;;-0.41;60.47;99862.59;5092831;28;42342;-79
2023/04/04 05:28:25;;;;;;;4.73;2.37;;;;;;;-0.20;60.09;99890.28;5075116;28;40281;-79
2023/04/04 05:30:57;;;;;;;7.10;2.70;;;;;;;-0.15;60.53;99882.47;5125777;27;42720;-80
2023/04/04 05:33:27;;;;;;;6.27;2.60;;;;;;;-0.10;60.36;99901.53;5091861;28;43989;-79
2023/04/04 05:36:13;;;;;;;4.33;2.67;;;;;;;-0.05;59.86;99899.81;5074166;28;40934;-79
2023/04/04 05:38:48;;;;;;;3.07;2.30;;;;;;;-0.03;59.88;99898.94;5122376;27;41183;-79
2023/04/04 05:41:18;;;;;;;3.27;2.43;;;;;;;0.02;60.07;99901.50;5122630;27;42638;-79
2023/04/04 05:43:49;;;;;;;5.40;2.40;;;;;;;-0.04;60.29;99886.78;5108310;28;42722;-79
2023/04/04 05:46:20;;;;;;;2.97;2.30;;;;;;;-0.28;59.98;99833.94;5074392;28;41260;-79
2023/04/04 05:48:52;;;;;;;3.33;2.70;;;;;;;0.04;59.92;99878.94;5088474;28;40893;-80
2023/04/04 05:51:20;;;;;;;3.07;2.40;;;;;;;0.14;59.80;99884.97;5091605;28;43097;-79
2023/04/04 05:53:58;;;;;;;4.77;2.00;;;;;;;0.38;59.71;99910.91;5074393;28;43230;-80
2023/04/04 05:56:31;;;;;;;4.87;2.70;;;;;;;0.37;59.66;99892.69;5074751;28;42249;-80
2023/04/04 05:59:02;;;;;;;5.73;2.10;;;;;;;0.51;59.42;99906.50;5073670;28;39115;-80
2023/04/04 06:01:34;;;;;;;3.40;2.23;;;;;;;0.66;59.26;99912.50;5074270;28;41920;-80
2023/04/04 06:04:08;;;;;;;6.93;2.53;;;;;;;0.75;59.28;99916.78;5074027;28;42975;-79
2023/04/04 06:06:37;;;;;;;3.53;2.50;;;;;;;0.84;59.00;99916.75;5108085;28;41104;-80
2023/04/04 06:09:05;;;;;;;2.50;2.30;;;;;;;0.85;58.73;99892.41;5074020;28;39167;-80
2023/04/04 06:11:33;;;;;;;6.07;2.00;;;;;;;1.09;58.33;99917.44;5091074;28;42069;-80
2023/04/04 06:14:08;;;;;;;2.87;2.30;;;;;;;1.08;58.07;99890.50;5073620;28;42046;-80
2023/04/04 06:16:36;;;;;;;4.13;2.00;;;;;;;1.22;57.93;99913.88;5074520;28;42107;-79
2023/04/04 06:19:04;;;;;;;4.00;2.50;;;;;;;1.37;57.66;99929.38;5074076;28;39084;-81
2023/04/04 06:21:32;;;;;;;3.43;2.53;;;;;;;1.32;57.64;99910.31;5074307;28;41567;-80
2023/04/04 06:24:00;;;;;;;4.67;2.40;;;;;;;1.53;57.26;99924.91;5090882;28;43642;-80
2023/04/04 06:26:28;;;;;;;3.90;2.33;;;;;;;1.64;57.27;99932.63;5108308;27;41221;-80
2023/04/04 06:28:56;;;;;;;2.80;2.43;;;;;;;1.73;57.04;99927.34;5094730;28;41925;-81
2023/04/04 06:31:32;;;;;;;4.70;2.10;;;;;;;1.85;56.80;99931.56;5111852;28;41809;-80
2023/04/04 06:34:06;;;;;;;3.10;2.20;;;;;;;1.94;56.53;99931.47;5111546;28;41859;-80
2023/04/04 06:36:39;;;;;;;3.97;2.23;;;;;;;2.17;56.72;99940.78;5112000;28;40844;-80
2023/04/04 06:39:08;;;;;;;2.77;2.00;;;;;;;2.19;55.11;99930.31;5111079;28;38857;-80
2023/04/04 06:41:36;;;;;;;5.67;2.23;;;;;;;2.43;54.34;99945.72;5077623;28;42090;-80
2023/04/04 06:44:04;;;;;;;2.50;1.93;;;;;;;2.57;54.06;99949.91;5110748;28;41723;-80
2023/04/04 06:46:33;;;;;;;4.07;2.60;;;;;;;2.71;53.70;99941.00;5094479;28;41933;-80
2023/04/04 06:49:01;;;;;;;3.17;2.27;;;;;;;2.84;53.59;99944.31;5094219;28;39717;-80
2023/04/04 06:51:29;;;;;;;2.73;2.00;;;;;;;3.02;52.47;99964.97;5077212;28;40622;-82
2023/04/04 06:53:57;;;;;;;2.50;1.77;;;;;;;3.15;52.84;99961.28;5076995;28;41768;-80
2023/04/04 06:56:25;;;;;;;3.60;1.87;;;;;;;3.38;52.29;99960.06;5094406;28;42116;-79
2023/04/04 06:58:53;;;;;;;3.60;2.07;;;;;;;3.58;51.83;99965.88;5127994;27;41219;-80
2023/04/04 07:01:22;;;;;;;3.63;1.90;;;;;;;3.73;50.08;99968.22;5077196;28;40826;-81
2023/04/04 07:03:54;;;;;;;2.50;1.80;;;;;;;4.09;49.60;99979.78;5077233;28;43164;-80
2023/04/04 07:06:22;;;;;;;3.17;1.60;;;;;;;4.58;49.42;99977.09;5094192;28;41191;-79
2023/04/04 07:08:50;;;;;;;1.97;1.63;;;;;;;4.79;47.75;99980.19;5077312;28;39340;-80
2023/04/04 07:11:18;;;;;;;2.73;1.63;;;;;;;5.31;48.75;99978.13;5111102;28;42007;-80
2023/04/04 07:13:46;;;;;;;2.03;1.83;;;;;;;5.41;46.79;99974.38;5094037;28;43038;-82
2023/04/04 07:16:15;;;;;;;2.70;1.93;;;;;;;6.16;45.90;100000.59;5094144;28;43102;-80
2023/04/04 07:18:43;;;;;;;3.00;1.90;;;;;;;6.89;43.88;99988.88;5127797;27;40594;-80
2023/04/04 07:21:12;;;;;;;2.70;1.70;;;;;;;7.75;42.19;100010.78;5093642;28;41009;-80
2023/04/04 07:23:40;;;;;;;3.07;1.70;;;;;;;9.09;41.00;100036.00;5093570;28;42970;-81
2023/04/04 07:26:08;;;;;;;3.10;1.70;;;;;;;9.76;38.61;100038.66;5093254;28;42098;-81
2023/04/04 07:28:35;;;;;;;3.77;1.70;;;;;;;10.17;37.24;100021.06;5076679;28;39122;-81
2023/04/04 07:31:03;;;;;;;3.37;2.07;;;;;;;10.54;36.63;100053.94;5093323;28;41564;-80
2023/04/04 07:33:31;;;;;;;3.57;1.87;;;;;;;10.46;36.45;100046.34;5076601;28;42769;-82
2023/04/04 07:36:01;;;;;;;5.00;1.80;;;;;;;10.37;37.70;100026.44;5093149;28;42441;-82
2023/04/04 07:38:30;;;;;;;3.37;1.90;;;;;;;10.64;37.68;100044.66;5092939;28;41384;-80
2023/04/04 07:40:58;;;;;;;3.03;1.80;;;;;;;10.68;36.83;100059.50;5109587;28;40618;-82
2023/04/04 07:43:26;;;;;;;3.33;1.90;;;;;;;10.62;36.98;99998.88;5093062;28;42705;-80
2023/04/04 07:45:54;;;;;;;3.20;2.00;;;;;;;11.13;37.10;100061.88;5076913;28;41852;-80
2023/04/04 07:48:22;;;;;;;3.37;2.17;;;;;;;11.06;35.09;100063.09;5093661;28;38927;-83
2023/04/04 07:50:50;;;;;;;3.73;2.20;;;;;;;11.52;35.39;100051.22;5092987;28;41804;-81
2023/04/04 07:53:17;;;;;;;4.03;2.20;;;;;;;12.55;33.13;100051.44;5076604;28;42246;-80
2023/04/04 07:55:47;;;;;;;4.13;2.23;;;;;;;14.34;30.16;100082.41;5076178;28;41948;-82
2023/04/04 07:58:15;;;;;;;2.17;1.90;;;;;;;16.85;28.70;100075.25;5093343;28;39897;-80
2023/04/04 08:00:42;;;;;;;3.03;1.80;;;;;;;18.94;26.04;100089.41;5092953;28;42080;-81
2023/04/04 08:03:11;;;;;;;2.73;2.00;;;;;;;19.33;24.80;100105.13;5093143;28;41678;-81
2023/04/04 08:05:38;;;;;;;2.50;1.60;;;;;;;19.53;25.02;100081.22;5075499;28;41278;-81
2023/04/04 08:08:06;;;;;;;2.13;1.70;;;;;;;20.62;23.96;100093.69;5076026;28;39920;-81
2023/04/04 08:10:34;;;;;;;4.27;1.93;;;;;;;21.42;22.13;100110.13;5127274;27;41623;-80
2023/04/04 08:13:04;;;;;;;3.40;2.37;;;;;;;21.28;23.26;100080.81;5127198;27;43952;-81
2023/04/04 08:15:32;;;;;;;2.10;1.90;;;;;;;21.10;22.33;100103.97;5075012;28;42499;-80
2023/04/04 08:18:00;;;;;;;3.17;1.87;;;;;;;20.44;23.36;100073.69;5110183;28;40430;-80
2023/04/04 08:20:28;;;;;;;2.30;1.93;;;;;;;19.80;23.27;100094.25;5092420;28;41990;-80
2023/04/04 08:22:56;;;;;;;3.07;1.70;;;;;;;19.59;22.67;100076.19;5109886;28;41872;-80
2023/04/04 08:25:24;;;;;;;3.00;2.20;;;;;;;19.17;22.41;100106.44;5093615;28;42163;-82
2023/04/04 08:27:51;;;;;;;2.43;1.97;;;;;;;18.55;23.00;100077.19;5093866;28;40549;-80
2023/04/04 08:30:21;;;;;;;2.30;1.63;;;;;;;19.00;23.92;100081.75;5108722;28;41014;-81
2023/04/04 08:32:49;;;;;;;2.00;1.80;;;;;;;20.31;22.32;100084.59;5093723;28;43489;-80
2023/04/04 08:35:17;;;;;;;2.07;1.90;;;;;;;21.15;20.43;100082.84;5092407;28;42495;-81
2023/04/04 08:37:46;;;;;;;4.33;1.83;;;;;;;21.81;20.59;100100.34;5092260;28;39061;-79
2023/04/04 08:40:14;;;;;;;3.00;1.70;;;;;;;22.22;20.25;100103.91;5074774;28;41045;-81
2023/04/04 08:42:43;;;;;;;2.33;1.77;;;;;;;22.49;20.92;100079.78;5092874;28;43013;-80
2023/04/04 08:45:12;;;;;;;2.90;1.63;;;;;;;22.99;19.41;100098.53;5074565;28;41157;-80
2023/04/04 08:47:43;;;;;;;2.10;1.90;;;;;;;24.02;18.56;100103.84;5109328;28;40166;-80
2023/04/04 08:50:12;;;;;;;3.63;2.30;;;;;;;25.59;17.88;100095.94;5091399;28;41608;-78
2023/04/04 08:52:42;;;;;;;2.40;2.20;;;;;;;27.18;17.11;100075.75;5108642;28;42060;-78
2023/04/04 08:55:11;;;;;;;2.83;2.10;;;;;;;26.70;17.18;100098.38;5074158;28;42239;-80
2023/04/04 08:57:39;;;;;;;3.13;2.30;;;;;;;26.09;16.43;100095.97;5091545;28;41175;-81
2023/04/04 09:00:10;;;;;;;5.00;2.40;;;;;;;27.92;16.17;100084.56;5091119;28;42668;-81
2023/04/04 09:02:44;;;;;;;2.53;2.13;;;;;;;29.09;14.66;100091.63;5088954;28;42601;-81
2023/04/04 09:05:14;;;;;;;2.60;2.27;;;;;;;29.55;13.76;100089.66;5074578;28;42265;-82
2023/04/04 09:07:43;;;;;;;3.80;2.50;;;;;;;31.14;13.70;100092.34;5091778;28;40925;-82
2023/04/04 09:10:12;;;;;;;2.42;2.10;;;;;;;32.52;12.98;100089.53;5108361;28;40450;-81
2023/04/04 09:12:44;;;;;;;2.72;1.83;;;;;;;32.62;12.13;100081.72;5091423;28;43741;-81
2023/04/04 09:15:12;;;;;;;2.28;2.08;;;;;;;32.45;12.28;100095.81;5089582;28;42443;-81
2023/04/04 09:17:43;;;;;;;3.10;2.00;;;;;;;32.44;12.34;100096.88;5075603;28;20225;-80
2023/04/04 09:20:40;;;;;;;2.08;1.88;;;;;;;31.85;12.71;100093.03;5091819;28;41906;-80
2023/04/04 09:23:10;;;;;;;2.28;2.08;;;;;;;32.88;12.49;100079.03;5091283;28;41774;-80
2023/04/04 09:25:42;;;;;;;3.38;1.98;;;;;;;33.59;11.92;100092.94;5107846;28;41085;-81
2023/04/04 09:28:11;;;;;;;2.40;1.88;;;;;;;32.74;12.09;100074.59;5089126;28;40103;-82
2023/04/04 09:30:39;;;;;;;4.07;2.30;;;;;;;30.85;12.60;100080.50;5090762;28;42675;-81
2023/04/04 09:33:10;;;;;;;2.67;2.10;;;;;;;28.95;14.26;100060.53;5090715;28;43760;-82
2023/04/04 09:35:40;;;;;;;2.43;2.13;;;;;;;27.79;14.26;100052.47;5095198;28;41186;-82
2023/04/04 09:38:08;;;;;;;3.87;2.53;;;;;;;28.97;13.54;100068.53;5096108;28;40285;-81
2023/04/04 09:40:36;;;;;;;2.43;2.03;;;;;;;29.58;14.03;100057.34;5095500;28;41816;-82
2023/04/04 09:43:08;;;;;;;2.67;2.10;;;;;;;29.35;14.40;100051.09;5092470;28;43779;-81
2023/04/04 09:45:40;;;;;;;2.43;1.73;;;;;;;27.44;14.98;100053.75;5074099;28;42198;-80
2023/04/04 09:48:10;;;;;;;2.73;2.13;;;;;;;25.81;15.28;100051.13;5090902;28;39875;-81
2023/04/04 09:50:45;;;;;;;2.77;1.97;;;;;;;24.73;16.05;100040.78;5073950;28;41550;-80
2023/04/04 09:53:17;;;;;;;3.33;2.20;;;;;;;24.53;16.17;100046.38;5089460;28;42888;-82
2023/04/04 09:55:50;;;;;;;2.27;2.10;;;;;;;24.12;16.94;100038.81;5108434;27;43807;-80
2023/04/04 09:58:24;;;;;;;3.77;2.47;;;;;;;24.11;16.94;100037.16;5107924;28;38758;-82
2023/04/04 10:00:55;;;;;;;2.50;2.30;;;;;;;22.97;17.63;100046.47;5073711;28;40543;-80
2023/04/04 10:03:25;;;;;;;3.03;2.07;;;;;;;22.08;19.10;100031.44;5077594;28;42019;-81
2023/04/04 10:05:59;;;;;;;2.20;2.00;;;;;;;22.56;18.45;100032.28;5077216;28;41576;-80
2023/04/04 10:08:28;;;;;;;2.90;2.00;;;;;;;22.86;17.78;100039.41;5092610;28;39947;-79
2023/04/04 10:10:58;;;;;;;2.63;2.10;;;;;;;21.95;18.56;100020.88;5093705;28;41756;-80
2023/04/04 10:13:27;;;;;;;2.33;2.00;;;;;;;21.36;19.68;100008.25;5094001;28;42761;-79
2023/04/04 10:15:56;;;;;;;3.00;1.70;;;;;;;20.66;19.51;100018.91;5093703;28;41373;-80
2023/04/04 10:18:27;;;;;;;2.20;2.00;;;;;;;20.02;20.16;100002.81;5095759;28;39901;-82
2023/04/04 10:20:56;;;;;;;2.43;1.83;;;;;;;19.60;20.21;100013.41;5077173;28;40731;-79
2023/04/04 10:23:26;;;;;;;3.37;2.17;;;;;;;18.76;21.13;99997.78;5111233;28;42435;-79
2023/04/04 10:25:54;;;;;;;2.33;2.00;;;;;;;18.75;21.49;100004.13;5076828;28;42074;-79
2023/04/04 10:28:22;;;;;;;2.97;2.20;;;;;;;20.93;20.77;99994.97;5096188;28;40230;-80
2023/04/04 10:30:55;;;;;;;2.20;2.00;;;;;;;21.09;19.54;100000.72;5077098;28;41062;-81
2023/04/04 10:33:32;;;;;;;2.83;2.10;;;;;;;20.15;19.81;100003.50;5077591;28;41770;-81
2023/04/04 10:36:03;;;;;;;3.10;2.27;;;;;;;21.79;19.25;99998.97;5093234;28;41807;-80
2023/04/04 10:38:37;;;;;;;2.17;1.80;;;;;;;22.24;19.25;99998.50;5125268;27;42037;-80
2023/04/04 10:41:06;;;;;;;1.87;1.77;;;;;;;22.86;18.71;100015.09;5093334;28;40710;-81
2023/04/04 10:43:39;;;;;;;2.67;1.83;;;;;;;23.98;18.35;100000.44;5110930;28;42895;-80
2023/04/04 10:46:12;;;;;;;2.00;1.80;;;;;;;26.23;16.84;99988.56;5127777;27;43027;-80
2023/04/04 10:48:42;;;;;;;2.07;1.87;;;;;;;28.17;15.36;100012.56;5111502;28;38890;-80
2023/04/04 10:51:12;;;;;;;2.27;2.03;;;;;;;29.96;14.43;100011.63;5095144;28;41546;-82
2023/04/04 10:53:41;;;;;;;2.42;1.95;;;;;;;31.14;12.66;100015.72;5094215;28;42767;-82
2023/04/04 10:56:10;;;;;;;2.17;1.92;;;;;;;32.27;13.13;100015.22;5095266;28;42434;-82
2023/04/04 10:58:41;;;;;;;2.60;2.00;;;;;;;32.71;11.86;100025.59;5128268;27;40688;-82
2023/04/04 11:01:10;;;;;;;3.37;2.33;;;;;;;30.97;12.70;100004.19;5076454;28;41666;-81
2023/04/04 11:04:15;;;;;;;2.20;2.00;;;;;;;30.57;12.78;100024.91;5093778;28;41737;-81
2023/04/04 11:07:09;;;;;;;4.03;2.43;;;;;;;29.54;13.18;100015.09;5095558;28;42256;-81
2023/04/04 11:09:54;;;;;;;2.23;2.00;;;;;;;30.16;14.17;99984.53;5093884;28;38630;-80
2023/04/04 11:12:27;;;;;;;2.00;1.80;;;;;;;30.35;14.17;99983.88;5091088;28;41947;-81
2023/04/04 11:15:08;;;;;;;2.20;2.00;;;;;;;29.45;13.36;99994.38;5092766;28;41619;-80
2023/04/04 11:17:43;;;;;;;3.47;1.73;;;;;;;28.29;14.19;99990.38;5094116;28;42533;-82
2023/04/04 11:20:16;;;;;;;3.10;2.00;;;;;;;29.06;14.37;99970.06;5093443;28;39612;-81
2023/04/04 11:22:46;;;;;;;2.40;2.17;;;;;;;30.50;12.86;100000.22;5093613;28;40444;-79
2023/04/04 11:25:30;;;;;;;4.10;2.27;;;;;;;32.06;12.29;99994.25;5127610;27;42881;-80
2023/04/04 11:27:58;;;;;;;2.97;1.63;;;;;;;33.73;12.67;99986.56;5124510;27;42425;-80
2023/04/04 11:30:27;;;;;;;3.33;2.08;;;;;;;35.27;12.24;99998.81;5076946;28;39542;-80
2023/04/04 11:32:58;;;;;;;2.97;1.92;;;;;;;36.37;11.09;99987.63;5094031;28;40870;-82
2023/04/04 11:35:27;;;;;;;2.65;1.98;;;;;;;34.39;10.76;100009.06;5126784;27;42766;-80
2023/04/04 11:38:02;;;;;;;4.20;2.50;;;;;;;32.43;12.05;99996.44;5093572;28;42157;-80
2023/04/04 11:40:40;;;;;;;4.13;2.10;;;;;;;30.47;12.40;99997.88;5092963;28;39089;-80
2023/04/04 11:43:09;;;;;;;3.00;2.17;;;;;;;30.80;12.79;99997.31;5076781;28;40811;-81
2023/04/04 11:45:38;;;;;;;3.63;2.17;;;;;;;30.04;12.87;99986.09;5093387;28;41972;-81
2023/04/04 11:48:07;;;;;;;2.40;2.00;;;;;;;27.92;13.58;99986.53;5127670;27;42349;-82